Time;durP1;ratioP1;P1;durP2;ratioP2;P2;SDS_P1;SDS_P2;PMS_P1;PMS_P2;Temp;Humidity;BMP_temperature;BMP_pressure;BME280_temperature;BME280_humidity;BME280_pressure;Samples;Min_cycle;Max_cycle;Signal;HPM_P1;HPM_P2
2022/06/12 00:02:10;;;;;;;10.00;8.98;;;;;;;;;;5089323;28;20063;-84
2022/06/12 00:04:36;;;;;;;9.98;9.00;;;;;;;;;;5085992;28;20029;-84
2022/06/12 00:07:03;;;;;;;10.93;9.82;;;;;;;;;;5075952;28;20029;-84
2022/06/12 00:09:29;;;;;;;10.77;9.70;;;;;;;;;;5078058;28;20021;-84
2022/06/12 00:11:55;;;;;;;10.40;9.20;;;;;;;;;;5065530;28;20024;-84
2022/06/12 00:14:21;;;;;;;10.02;9.10;;;;;;;;;;5067503;28;20063;-83
2022/06/12 00:16:47;;;;;;;10.50;9.30;;;;;;;;;;5068458;28;20028;-83
2022/06/12 00:19:13;;;;;;;10.68;9.68;;;;;;;;;;5089303;28;20043;-83
2022/06/12 00:21:39;;;;;;;12.00;10.20;;;;;;;;;;5067753;28;20029;-83
2022/06/12 00:24:07;;;;;;;10.73;9.63;;;;;;;;;;5079677;28;20077;-84
2022/06/12 00:26:44;;;;;;;11.32;10.13;;;;;;;;;;5101684;28;20503;-84
2022/06/12 00:29:13;;;;;;;10.43;9.32;;;;;;;;;;5066320;28;20029;-83
2022/06/12 00:31:41;;;;;;;11.65;9.90;;;;;;;;;;5093028;28;20658;-83
2022/06/12 00:34:08;;;;;;;10.32;9.32;;;;;;;;;;5091005;28;20052;-85
2022/06/12 00:36:34;;;;;;;11.45;10.35;;;;;;;;;;5090449;28;20020;-84
2022/06/12 00:39:00;;;;;;;10.52;9.43;;;;;;;;;;5070558;28;20036;-84
2022/06/12 00:41:26;;;;;;;11.32;10.18;;;;;;;;;;5100839;28;20035;-83
2022/06/12 00:43:52;;;;;;;11.65;10.45;;;;;;;;;;5100077;28;20024;-82
2022/06/12 00:46:37;;;;;;;11.40;10.30;;;;;;;;;;5090875;28;20049;-83
2022/06/12 00:49:21;;;;;;;12.05;10.65;;;;;;;;;;5070594;28;20025;-83
2022/06/12 00:51:49;;;;;;;11.85;10.73;;;;;;;;;;5080872;28;20041;-85
2022/06/12 00:54:18;;;;;;;11.20;10.07;;;;;;;;;;5088600;28;20028;-84
2022/06/12 00:56:49;;;;;;;11.90;10.57;;;;;;;;;;5090528;28;20021;-82
2022/06/12 00:59:34;;;;;;;11.52;10.43;;;;;;;;;;5090024;28;20019;-82
2022/06/12 01:02:03;;;;;;;10.68;9.50;;;;;;;;;;5072437;28;20029;-82
2022/06/12 01:07:17;;;;;;;9.40;8.40;;;;;;;;;;5091344;28;20052;-82
2022/06/12 01:09:45;;;;;;;8.50;7.70;;;;;;;;;;5091950;28;20028;-83
2022/06/12 01:12:13;;;;;;;8.80;7.90;;;;;;;;;;5089212;28;20497;-84
2022/06/12 01:14:50;;;;;;;9.13;7.82;;;;;;;;;;5086174;28;20024;-84
2022/06/12 01:17:16;;;;;;;8.57;7.45;;;;;;;;;;5084897;28;20032;-83
2022/06/12 01:19:54;;;;;;;7.95;7.13;;;;;;;;;;5073564;28;20037;-84
2022/06/12 01:22:39;;;;;;;8.80;7.30;;;;;;;;;;5089290;28;20029;-83
2022/06/12 01:25:23;;;;;;;9.32;8.32;;;;;;;;;;5089911;28;20028;-83
2022/06/12 01:27:49;;;;;;;10.38;7.30;;;;;;;;;;5088648;28;20067;-83
2022/06/12 01:30:20;;;;;;;7.68;6.88;;;;;;;;;;5088956;28;20048;-84
2022/06/12 01:32:46;;;;;;;9.38;8.32;;;;;;;;;;5086758;28;20036;-83
2022/06/12 01:35:16;;;;;;;8.70;7.05;;;;;;;;;;5078722;28;20518;-83
2022/06/12 01:38:01;;;;;;;9.15;8.23;;;;;;;;;;5090567;28;20028;-83
2022/06/12 01:40:37;;;;;;;8.27;7.47;;;;;;;;;;5087522;28;20346;-84
2022/06/12 01:43:15;;;;;;;9.02;8.15;;;;;;;;;;5096845;28;20130;-84
2022/06/12 01:45:49;;;;;;;8.40;7.50;;;;;;;;;;5110453;28;20043;-84
2022/06/12 01:48:27;;;;;;;8.80;7.70;;;;;;;;;;5107697;28;20035;-84
2022/06/12 01:51:02;;;;;;;8.75;7.85;;;;;;;;;;5088976;28;20054;-83
2022/06/12 01:53:37;;;;;;;7.90;6.85;;;;;;;;;;5088616;28;20480;-84
2022/06/12 01:56:06;;;;;;;8.63;7.30;;;;;;;;;;5099822;28;20031;-84
2022/06/12 01:58:45;;;;;;;8.90;7.32;;;;;;;;;;5068920;28;20048;-85
2022/06/12 02:01:26;;;;;;;8.88;7.45;;;;;;;;;;5068846;28;20021;-83
2022/06/12 02:03:55;;;;;;;8.50;7.35;;;;;;;;;;5086467;28;20021;-84
2022/06/12 02:06:24;;;;;;;8.48;7.40;;;;;;;;;;5084583;28;20118;-83
2022/06/12 02:09:06;;;;;;;8.02;7.15;;;;;;;;;;5089421;28;20036;-84
2022/06/12 02:14:26;;;;;;;8.50;7.10;;;;;;;;;;5072922;28;20036;-83
2022/06/12 02:16:55;;;;;;;8.02;7.13;;;;;;;;;;5081246;28;20054;-83
2022/06/12 02:19:24;;;;;;;8.13;7.25;;;;;;;;;;5092139;28;20025;-83
2022/06/12 02:21:57;;;;;;;8.77;7.45;;;;;;;;;;5088371;28;20064;-83
2022/06/12 02:24:24;;;;;;;;;;;;;;;;;;5103775;28;20028;-84
2022/06/12 02:27:03;;;;;;;8.88;7.75;;;;;;;;;;5091781;28;19962;-83
2022/06/12 02:29:35;;;;;;;8.45;7.55;;;;;;;;;;5075535;28;20032;-84
2022/06/12 02:32:03;;;;;;;8.37;7.40;;;;;;;;;;5080904;28;20334;-84
2022/06/12 02:34:35;;;;;;;9.52;7.40;;;;;;;;;;5109927;28;20024;-83
2022/06/12 02:37:30;;;;;;;8.75;7.95;;;;;;;;;;5109849;28;20028;-85
2022/06/12 02:39:58;;;;;;;11.30;8.38;;;;;;;;;;5005507;28;20049;-83
2022/06/12 02:42:27;;;;;;;9.25;8.35;;;;;;;;;;4989029;28;20019;-84
2022/06/12 02:44:54;;;;;;;9.50;8.60;;;;;;;;;;5005245;28;20043;-83
2022/06/12 02:47:25;;;;;;;9.80;8.80;;;;;;;;;;5007708;28;20042;-84
2022/06/12 02:49:51;;;;;;;10.10;9.05;;;;;;;;;;5009214;28;20117;-84
2022/06/12 02:52:20;;;;;;;10.75;9.65;;;;;;;;;;4997962;28;20098;-84
2022/06/12 02:54:55;;;;;;;10.30;9.13;;;;;;;;;;5006254;28;20098;-85
2022/06/12 02:57:21;;;;;;;10.55;9.35;;;;;;;;;;5002520;28;20073;-83
2022/06/12 02:59:55;;;;;;;10.32;9.25;;;;;;;;;;5006918;28;20030;-83
2022/06/12 03:02:21;;;;;;;13.18;9.88;;;;;;;;;;5007052;28;20018;-83
2022/06/12 03:05:19;;;;;;;11.48;9.85;;;;;;;;;;4986923;28;20034;-85
2022/06/12 03:07:45;;;;;;;9.57;8.68;;;;;;;;;;4957970;28;20103;-83
2022/06/12 03:10:14;;;;;;;9.90;8.90;;;;;;;;;;4949628;29;20043;-83
2022/06/12 03:12:40;;;;;;;10.18;8.98;;;;;;;;;;4966547;29;20047;-84
2022/06/12 03:15:07;;;;;;;10.40;9.38;;;;;;;;;;4971462;28;20078;-84
2022/06/12 03:17:33;;;;;;;10.85;9.65;;;;;;;;;;5047328;28;20056;-84
2022/06/12 03:19:59;;;;;;;12.82;9.75;;;;;;;;;;5047052;28;20033;-84
2022/06/12 03:22:37;;;;;;;11.75;9.73;;;;;;;;;;5059055;28;20042;-84
2022/06/12 03:25:03;;;;;;;11.15;9.73;;;;;;;;;;5066216;28;20045;-85
2022/06/12 03:27:48;;;;;;;12.77;10.20;;;;;;;;;;5040881;28;20104;-85
2022/06/12 03:30:14;;;;;;;10.85;9.77;;;;;;;;;;5047361;28;20060;-84
2022/06/12 03:32:41;;;;;;;12.70;10.27;;;;;;;;;;5046289;28;20029;-85
2022/06/12 03:35:11;;;;;;;11.95;10.43;;;;;;;;;;5047273;28;20029;-83
2022/06/12 03:37:54;;;;;;;11.40;10.20;;;;;;;;;;5044155;28;20041;-84
2022/06/12 03:40:23;;;;;;;11.77;10.30;;;;;;;;;;5050596;28;20048;-85
2022/06/12 03:43:11;;;;;;;11.63;10.40;;;;;;;;;;5052536;28;20072;-84
2022/06/12 03:45:51;;;;;;;10.90;9.15;;;;;;;;;;5066276;28;20067;-84
2022/06/12 03:48:33;;;;;;;11.10;9.63;;;;;;;;;;5093430;28;20032;-84
2022/06/12 03:51:09;;;;;;;10.77;9.63;;;;;;;;;;5073834;28;20032;-84
2022/06/12 03:53:54;;;;;;;11.18;10.07;;;;;;;;;;5088395;28;20047;-84
2022/06/12 03:59:28;;;;;;;10.90;9.80;;;;;;;;;;5079687;28;20028;-84
2022/06/12 04:01:54;;;;;;;11.70;10.50;;;;;;;;;;5087259;28;20050;-84
2022/06/12 04:04:24;;;;;;;12.27;10.35;;;;;;;;;;5086964;28;20056;-84
2022/06/12 04:06:50;;;;;;;11.35;10.07;;;;;;;;;;5074470;28;20033;-84
2022/06/12 04:09:18;;;;;;;11.00;9.85;;;;;;;;;;5072296;28;20053;-84
2022/06/12 04:11:52;;;;;;;12.73;10.05;;;;;;;;;;5092467;28;20028;-83
2022/06/12 04:14:19;;;;;;;12.70;10.13;;;;;;;;;;5083515;28;20032;-84
2022/06/12 04:16:50;;;;;;;10.85;9.55;;;;;;;;;;5106763;28;20046;-84
2022/06/12 04:19:19;;;;;;;10.75;9.57;;;;;;;;;;5091874;28;20076;-84
2022/06/12 04:21:50;;;;;;;12.25;9.63;;;;;;;;;;5085311;28;20028;-83
2022/06/12 04:24:19;;;;;;;10.35;9.25;;;;;;;;;;5090027;28;20032;-83
2022/06/12 04:27:00;;;;;;;10.80;9.75;;;;;;;;;;5073508;28;20058;-82
2022/06/12 04:29:32;;;;;;;11.07;9.75;;;;;;;;;;5084358;28;20073;-84
2022/06/12 04:32:00;;;;;;;9.80;8.80;;;;;;;;;;5082326;28;20131;-84
2022/06/12 04:34:31;;;;;;;11.38;9.43;;;;;;;;;;5084273;28;20028;-83
2022/06/12 04:37:03;;;;;;;10.63;9.50;;;;;;;;;;5077504;28;20052;-84
2022/06/12 04:39:31;;;;;;;9.85;8.88;;;;;;;;;;5064258;28;20040;-84
2022/06/12 04:41:58;;;;;;;10.50;8.50;;;;;;;;;;5069497;28;20028;-85
2022/06/12 04:44:24;;;;;;;10.10;8.40;;;;;;;;;;5067774;28;20020;-83
2022/06/12 04:46:51;;;;;;;8.98;8.07;;;;;;;;;;5083736;28;20043;-84
2022/06/12 04:49:20;;;;;;;9.18;8.25;;;;;;;;;;5065765;28;20047;-84
2022/06/12 04:51:46;;;;;;;8.70;7.80;;;;;;;;;;5082711;28;20036;-84
2022/06/12 04:54:13;;;;;;;9.10;8.18;;;;;;;;;;5084067;28;20139;-84
2022/06/12 04:56:39;;;;;;;10.70;8.52;;;;;;;;;;5083431;28;20021;-84
2022/06/12 04:59:06;;;;;;;7.88;7.10;;;;;;;;;;5067963;28;20116;-84
2022/06/12 05:01:32;;;;;;;8.70;7.40;;;;;;;;;;5090080;28;20016;-83
2022/06/12 05:03:59;;;;;;;8.73;7.57;;;;;;;;;;5064854;28;20051;-84
2022/06/12 05:06:25;;;;;;;8.43;6.75;;;;;;;;;;5063764;28;20029;-83
2022/06/12 05:08:52;;;;;;;8.05;7.18;;;;;;;;;;5062312;28;20404;-84
2022/06/12 05:11:19;;;;;;;7.72;6.93;;;;;;;;;;5062102;28;20156;-84
2022/06/12 05:13:45;;;;;;;8.02;7.10;;;;;;;;;;5065736;28;20033;-84
2022/06/12 05:16:22;;;;;;;8.55;7.03;;;;;;;;;;5061471;28;20484;-83
2022/06/12 05:18:48;;;;;;;7.72;6.88;;;;;;;;;;5065356;28;20047;-84
2022/06/12 05:21:14;;;;;;;8.43;6.78;;;;;;;;;;5082231;28;20032;-84
2022/06/12 05:23:40;;;;;;;8.30;7.05;;;;;;;;;;5073817;28;20485;-84
2022/06/12 05:26:06;;;;;;;10.65;7.53;;;;;;;;;;5065993;28;20056;-83
2022/06/12 05:28:35;;;;;;;9.98;6.90;;;;;;;;;;5065046;28;20049;-83
2022/06/12 05:31:01;;;;;;;8.73;6.70;;;;;;;;;;5075719;28;20044;-84
2022/06/12 05:33:27;;;;;;;7.95;7.15;;;;;;;;;;5083441;28;20028;-85
2022/06/12 05:35:53;;;;;;;8.15;6.82;;;;;;;;;;5085696;28;20090;-84
2022/06/12 05:38:19;;;;;;;9.38;7.65;;;;;;;;;;5083643;28;20055;-83
2022/06/12 05:40:45;;;;;;;7.75;6.95;;;;;;;;;;5087562;28;20033;-84
2022/06/12 05:43:11;;;;;;;7.90;7.05;;;;;;;;;;5068293;28;20031;-85
2022/06/12 05:45:37;;;;;;;9.13;8.18;;;;;;;;;;5071600;28;20263;-83
2022/06/12 05:48:15;;;;;;;7.63;6.82;;;;;;;;;;5076741;28;20504;-84
2022/06/12 05:51:00;;;;;;;7.93;7.07;;;;;;;;;;5088667;28;20050;-83
2022/06/12 05:53:27;;;;;;;7.65;6.85;;;;;;;;;;5091028;28;20029;-84
2022/06/12 05:55:54;;;;;;;8.43;6.75;;;;;;;;;;5087657;28;20491;-83
2022/06/12 05:58:21;;;;;;;7.38;6.63;;;;;;;;;;5095514;28;20047;-84
2022/06/12 06:00:47;;;;;;;7.50;6.80;;;;;;;;;;5091313;28;20032;-83
2022/06/12 06:03:13;;;;;;;7.75;6.35;;;;;;;;;;5097646;28;20028;-85
2022/06/12 06:05:41;;;;;;;7.95;6.47;;;;;;;;;;5094483;28;20027;-84
2022/06/12 06:08:08;;;;;;;8.55;6.85;;;;;;;;;;5100130;28;20115;-85
2022/06/12 06:10:35;;;;;;;8.20;6.63;;;;;;;;;;5097319;28;20052;-83
2022/06/12 06:13:01;;;;;;;7.65;6.50;;;;;;;;;;5083732;28;20056;-85
2022/06/12 06:15:28;;;;;;;6.68;5.93;;;;;;;;;;5071064;28;20028;-85
2022/06/12 06:17:54;;;;;;;8.23;6.40;;;;;;;;;;5074129;28;20701;-84
2022/06/12 06:20:22;;;;;;;6.90;6.20;;;;;;;;;;5086623;28;20055;-84
2022/06/12 06:22:49;;;;;;;7.35;6.60;;;;;;;;;;5099588;28;20032;-83
2022/06/12 06:25:15;;;;;;;7.25;6.00;;;;;;;;;;5080697;28;20020;-85
2022/06/12 06:27:41;;;;;;;7.35;6.38;;;;;;;;;;5091448;28;20047;-86
2022/06/12 06:30:08;;;;;;;7.65;6.20;;;;;;;;;;5085446;28;20087;-85
2022/06/12 06:32:34;;;;;;;8.00;6.20;;;;;;;;;;5079431;28;20075;-81
2022/06/12 06:35:01;;;;;;;7.75;6.20;;;;;;;;;;5073095;28;20041;-84
2022/06/12 06:37:27;;;;;;;7.10;5.97;;;;;;;;;;5079587;28;20088;-82
2022/06/12 06:39:53;;;;;;;7.88;6.05;;;;;;;;;;5087459;28;20044;-85
2022/06/12 06:42:19;;;;;;;7.18;5.78;;;;;;;;;;5086664;28;20084;-84
2022/06/12 06:47:31;;;;;;;7.68;6.00;;;;;;;;;;5088483;28;20026;-85
2022/06/12 06:49:57;;;;;;;6.65;5.63;;;;;;;;;;5091540;28;20008;-84
2022/06/12 06:52:23;;;;;;;5.93;5.28;;;;;;;;;;5078291;28;20024;-83
2022/06/12 06:54:49;;;;;;;6.57;5.25;;;;;;;;;;5071538;28;20112;-83
2022/06/12 06:57:15;;;;;;;6.30;5.20;;;;;;;;;;5098023;28;20016;-84
2022/06/12 06:59:41;;;;;;;5.95;5.30;;;;;;;;;;5076273;28;20044;-83
2022/06/12 07:02:08;;;;;;;7.28;5.22;;;;;;;;;;5092970;28;20084;-82
2022/06/12 07:04:34;;;;;;;6.70;5.20;;;;;;;;;;5096062;28;20021;-85
2022/06/12 07:07:01;;;;;;;6.28;4.70;;;;;;;;;;5076928;28;20025;-82
2022/06/12 07:09:27;;;;;;;7.40;5.43;;;;;;;;;;5088099;28;20088;-83
2022/06/12 07:11:53;;;;;;;7.70;5.10;;;;;;;;;;5078855;28;20032;-83
2022/06/12 07:14:19;;;;;;;5.65;4.72;;;;;;;;;;5074654;28;20404;-85
2022/06/12 07:16:45;;;;;;;6.25;4.90;;;;;;;;;;5094211;28;20028;-83
2022/06/12 07:19:11;;;;;;;6.68;4.97;;;;;;;;;;5091249;28;20021;-83
2022/06/12 07:21:37;;;;;;;5.60;4.90;;;;;;;;;;5078751;28;20024;-82
2022/06/12 07:24:03;;;;;;;7.22;4.57;;;;;;;;;;5071414;28;20028;-83
2022/06/12 07:26:38;;;;;;;8.07;4.53;;;;;;;;;;5085908;28;20067;-83
2022/06/12 07:29:04;;;;;;;6.03;4.93;;;;;;;;;;5077693;28;20265;-82
2022/06/12 07:31:31;;;;;;;6.55;4.55;;;;;;;;;;5070625;28;20531;-84
2022/06/12 07:33:57;;;;;;;5.90;4.45;;;;;;;;;;5073527;28;20029;-83
2022/06/12 07:36:23;;;;;;;6.40;4.82;;;;;;;;;;5089888;28;20516;-84
2022/06/12 07:38:50;;;;;;;6.72;4.85;;;;;;;;;;5090581;28;20040;-86
2022/06/12 07:41:17;;;;;;;6.00;4.78;;;;;;;;;;5081970;28;20028;-85
2022/06/12 07:43:43;;;;;;;6.53;5.20;;;;;;;;;;5087178;28;20020;-85
2022/06/12 07:46:11;;;;;;;6.03;4.60;;;;;;;;;;5093437;28;20163;-84
2022/06/12 07:48:39;;;;;;;5.95;5.05;;;;;;;;;;5088682;28;20107;-84
2022/06/12 07:51:07;;;;;;;6.30;5.05;;;;;;;;;;5093907;28;20032;-84
2022/06/12 07:53:34;;;;;;;6.45;4.60;;;;;;;;;;5110217;28;20420;-84
2022/06/12 07:56:03;;;;;;;5.45;4.25;;;;;;;;;;5105403;28;20121;-84
2022/06/12 07:58:29;;;;;;;5.40;4.20;;;;;;;;;;5089649;28;20029;-84
2022/06/12 08:00:58;;;;;;;5.75;4.40;;;;;;;;;;5089653;28;20017;-84
2022/06/12 08:03:25;;;;;;;6.07;4.38;;;;;;;;;;5088925;28;20029;-84
2022/06/12 08:05:51;;;;;;;5.20;4.18;;;;;;;;;;5081344;28;20100;-85
2022/06/12 08:08:17;;;;;;;5.50;4.50;;;;;;;;;;5060133;28;20033;-85
2022/06/12 08:10:43;;;;;;;5.68;4.20;;;;;;;;;;5084720;28;20028;-83
2022/06/12 08:13:10;;;;;;;5.70;4.07;;;;;;;;;;5080942;28;20515;-83
2022/06/12 08:15:37;;;;;;;4.97;4.05;;;;;;;;;;5062764;28;20036;-84
2022/06/12 08:18:04;;;;;;;6.43;4.65;;;;;;;;;;5080695;28;20024;-85
2022/06/12 08:20:31;;;;;;;6.22;4.00;;;;;;;;;;5080422;28;20017;-85
2022/06/12 08:22:57;;;;;;;5.75;4.20;;;;;;;;;;5074754;28;20360;-85
2022/06/12 08:25:24;;;;;;;5.93;4.13;;;;;;;;;;5067496;28;20064;-84
2022/06/12 08:27:50;;;;;;;6.38;4.15;;;;;;;;;;5056594;28;20032;-86
2022/06/12 08:30:16;;;;;;;5.30;4.28;;;;;;;;;;5068375;28;20041;-86
2022/06/12 08:32:43;;;;;;;6.60;4.43;;;;;;;;;;5052556;28;20070;-85
2022/06/12 08:35:13;;;;;;;6.10;4.40;;;;;;;;;;5070168;28;20040;-84
2022/06/12 08:37:39;;;;;;;5.90;4.43;;;;;;;;;;5063540;28;20017;-84
2022/06/12 08:40:12;;;;;;;5.00;4.22;;;;;;;;;;5054142;28;20048;-84
2022/06/12 08:42:52;;;;;;;7.50;4.43;;;;;;;;;;5064135;28;20252;-85
2022/06/12 08:45:21;;;;;;;5.70;4.55;;;;;;;;;;5072812;28;20090;-84
2022/06/12 08:47:53;;;;;;;6.35;4.47;;;;;;;;;;5090485;28;20031;-84
2022/06/12 08:50:19;;;;;;;5.95;4.65;;;;;;;;;;5077589;28;20451;-84
2022/06/12 08:52:50;;;;;;;5.70;4.65;;;;;;;;;;5055883;28;20029;-85
2022/06/12 08:55:22;;;;;;;6.00;4.13;;;;;;;;;;5091820;28;20029;-84
2022/06/12 08:57:52;;;;;;;5.05;4.28;;;;;;;;;;5071021;28;20021;-85
2022/06/12 09:00:20;;;;;;;5.22;4.40;;;;;;;;;;5084652;28;20016;-86
2022/06/12 09:02:47;;;;;;;6.10;4.25;;;;;;;;;;5067999;28;20132;-84
2022/06/12 09:05:16;;;;;;;17.13;15.57;;;;;;;;;;5097068;28;20028;-84
2022/06/12 09:07:53;;;;;;;5.22;4.38;;;;;;;;;;5086882;28;20038;-85
2022/06/12 09:10:24;;;;;;;6.40;5.00;;;;;;;;;;5075032;28;20021;-85
2022/06/12 09:12:52;;;;;;;5.68;4.40;;;;;;;;;;5060962;28;20033;-84
2022/06/12 09:15:27;;;;;;;5.90;5.22;;;;;;;;;;5082295;28;20062;-85
2022/06/12 09:18:11;;;;;;;6.53;5.22;;;;;;;;;;5077602;28;20086;-86
2022/06/12 09:21:16;;;;;;;6.45;4.45;;;;;;;;;;5079639;28;20021;-85
2022/06/12 09:23:51;;;;;;;6.20;4.63;;;;;;;;;;5034658;28;20025;-85
2022/06/12 09:26:25;;;;;;;5.80;4.78;;;;;;;;;;5039009;28;20037;-85
2022/06/12 09:29:07;;;;;;;5.90;4.53;;;;;;;;;;5018635;28;20048;-85
2022/06/12 09:31:49;;;;;;;5.65;4.03;;;;;;;;;;5029084;28;20109;-85
2022/06/12 09:34:29;;;;;;;6.65;4.65;;;;;;;;;;5019784;28;20045;-85
2022/06/12 09:36:58;;;;;;;5.28;4.47;;;;;;;;;;5050350;28;20253;-84
2022/06/12 09:39:42;;;;;;;6.70;4.22;;;;;;;;;;5036801;28;20402;-84
2022/06/12 09:42:14;;;;;;;5.60;4.63;;;;;;;;;;5039996;28;20064;-85
2022/06/12 09:44:42;;;;;;;6.70;4.70;;;;;;;;;;5041727;28;20559;-85
2022/06/12 09:47:13;;;;;;;5.90;4.50;;;;;;;;;;5017419;28;20040;-85
2022/06/12 09:49:54;;;;;;;7.20;4.57;;;;;;;;;;5017746;28;20097;-85
2022/06/12 09:52:22;;;;;;;8.13;6.78;;;;;;;;;;5030504;28;20026;-85
2022/06/12 09:54:51;;;;;;;8.73;7.85;;;;;;;;;;5058495;28;20039;-85
2022/06/12 09:57:21;;;;;;;6.28;4.75;;;;;;;;;;5078707;28;20408;-85
2022/06/12 09:59:54;;;;;;;6.90;5.20;;;;;;;;;;5071895;28;20029;-85
2022/06/12 10:02:29;;;;;;;11.95;7.15;;;;;;;;;;5080597;28;20291;-85
2022/06/12 10:04:59;;;;;;;7.40;5.43;;;;;;;;;;5082796;28;20017;-85
2022/06/12 10:07:42;;;;;;;5.82;4.95;;;;;;;;;;5071463;28;20522;-85
2022/06/12 10:10:22;;;;;;;5.57;4.97;;;;;;;;;;5078955;28;20086;-85
2022/06/12 10:12:51;;;;;;;8.23;6.25;;;;;;;;;;5080257;28;20036;-85
2022/06/12 10:15:22;;;;;;;6.10;4.72;;;;;;;;;;5075720;28;20120;-86
2022/06/12 10:17:56;;;;;;;7.53;5.72;;;;;;;;;;5077963;28;20480;-85
2022/06/12 10:20:30;;;;;;;25.55;22.88;;;;;;;;;;5064994;28;20029;-85
2022/06/12 10:22:56;;;;;;;7.40;6.65;;;;;;;;;;5071276;28;20024;-85
2022/06/12 10:25:43;;;;;;;12.02;10.20;;;;;;;;;;5084518;28;20032;-85
2022/06/12 10:28:15;;;;;;;5.97;5.00;;;;;;;;;;5099035;28;20455;-83
2022/06/12 10:30:47;;;;;;;7.00;4.93;;;;;;;;;;5096405;28;20040;-85
2022/06/12 10:33:16;;;;;;;7.10;4.97;;;;;;;;;;5085107;28;20017;-85
2022/06/12 10:35:51;;;;;;;6.70;5.43;;;;;;;;;;5071763;28;20279;-85
2022/06/12 10:38:18;;;;;;;8.13;7.13;;;;;;;;;;5079015;28;20029;-84
2022/06/12 10:40:52;;;;;;;7.88;6.63;;;;;;;;;;5079678;28;20012;-85
2022/06/12 10:43:39;;;;;;;5.10;4.30;;;;;;;;;;5083916;28;20021;-85
2022/06/12 10:46:25;;;;;;;5.45;4.38;;;;;;;;;;5072585;28;20034;-85
2022/06/12 10:49:00;;;;;;;5.05;4.28;;;;;;;;;;5100917;28;20062;-84
2022/06/12 10:51:29;;;;;;;5.47;4.07;;;;;;;;;;5088577;28;20055;-84
2022/06/12 10:53:57;;;;;;;6.32;4.70;;;;;;;;;;5059937;28;20484;-85
2022/06/12 10:56:27;;;;;;;6.40;4.82;;;;;;;;;;5058545;28;20328;-83
2022/06/12 10:59:09;;;;;;;6.07;4.88;;;;;;;;;;5062373;28;20035;-85
2022/06/12 11:01:39;;;;;;;5.72;4.72;;;;;;;;;;5075332;28;20044;-83
2022/06/12 11:04:05;;;;;;;6.00;4.13;;;;;;;;;;5070807;28;20044;-85
2022/06/12 11:06:36;;;;;;;5.78;4.10;;;;;;;;;;5073976;28;20037;-84
2022/06/12 11:09:06;;;;;;;4.93;3.60;;;;;;;;;;5076477;28;20043;-84
2022/06/12 11:11:50;;;;;;;6.95;5.57;;;;;;;;;;5078902;28;20028;-85
2022/06/12 11:14:16;;;;;;;5.72;4.22;;;;;;;;;;5077208;28;20506;-85
2022/06/12 11:16:52;;;;;;;5.60;4.05;;;;;;;;;;5077564;28;20032;-86
2022/06/12 11:19:19;;;;;;;5.63;4.13;;;;;;;;;;5079612;28;20415;-86
2022/06/12 11:21:45;;;;;;;6.07;4.18;;;;;;;;;;5076151;28;20021;-85
2022/06/12 11:24:11;;;;;;;4.95;3.83;;;;;;;;;;5074766;28;20028;-85
2022/06/12 11:26:40;;;;;;;5.00;4.05;;;;;;;;;;5057572;28;20028;-85
2022/06/12 11:29:14;;;;;;;5.20;4.30;;;;;;;;;;5056129;28;20056;-85
2022/06/12 11:32:06;;;;;;;5.30;4.60;;;;;;;;;;5076059;28;20082;-84
2022/06/12 11:34:35;;;;;;;5.60;4.57;;;;;;;;;;5079755;28;20020;-84
2022/06/12 11:37:04;;;;;;;7.38;5.55;;;;;;;;;;5075039;28;20444;-86
2022/06/12 11:39:39;;;;;;;6.15;4.05;;;;;;;;;;5076009;28;20020;-85
2022/06/12 11:42:24;;;;;;;5.30;3.97;;;;;;;;;;5068010;28;20094;-85
2022/06/12 11:44:58;;;;;;;4.30;3.55;;;;;;;;;;5077399;28;20131;-85
2022/06/12 11:47:41;;;;;;;6.03;4.13;;;;;;;;;;5077579;28;20376;-84
2022/06/12 11:50:28;;;;;;;5.07;4.15;;;;;;;;;;5076591;28;20027;-84
2022/06/12 11:53:01;;;;;;;5.32;3.83;;;;;;;;;;5063674;28;20434;-85
2022/06/12 11:55:50;;;;;;;5.43;3.70;;;;;;;;;;5056907;28;20114;-85
2022/06/12 11:58:23;;;;;;;4.65;3.38;;;;;;;;;;5072949;28;20028;-85
2022/06/12 12:00:49;;;;;;;;;;;;;;;;;;5076974;28;20025;-85
2022/06/12 12:03:15;;;;;;;5.10;3.50;;;;;;;;;;5069394;28;19962;-85
2022/06/12 12:05:50;;;;;;;4.18;2.92;;;;;;;;;;5056544;28;20025;-85
2022/06/12 12:08:22;;;;;;;5.40;3.25;;;;;;;;;;5066450;28;20435;-84
2022/06/12 12:10:58;;;;;;;4.22;2.70;;;;;;;;;;5078737;28;20111;-84
2022/06/12 12:13:33;;;;;;;4.57;2.60;;;;;;;;;;5074919;28;20084;-85
2022/06/12 12:16:04;;;;;;;5.07;2.97;;;;;;;;;;5063669;28;20025;-85
2022/06/12 12:18:30;;;;;;;4.55;2.78;;;;;;;;;;5056218;28;20018;-84
2022/06/12 12:20:57;;;;;;;4.30;2.45;;;;;;;;;;5069380;28;20039;-85
2022/06/12 12:23:34;;;;;;;4.72;2.67;;;;;;;;;;5074300;28;20038;-85
2022/06/12 12:26:11;;;;;;;4.18;2.90;;;;;;;;;;5071432;28;20496;-85
2022/06/12 12:28:41;;;;;;;5.65;2.50;;;;;;;;;;5073360;28;20064;-84
2022/06/12 12:31:10;;;;;;;4.70;2.78;;;;;;;;;;5080014;28;20044;-85
2022/06/12 12:33:38;;;;;;;4.55;2.88;;;;;;;;;;5090849;28;20285;-86
2022/06/12 12:41:39;;;;;;;4.78;3.20;;;;;;;;;;5060923;28;20500;-84
2022/06/12 12:44:05;;;;;;;5.18;2.90;;;;;;;;;;5068808;28;20572;-85
2022/06/12 12:46:47;;;;;;;4.88;3.40;;;;;;;;;;5072450;28;20091;-85
2022/06/12 12:49:28;;;;;;;4.83;3.03;;;;;;;;;;5063409;28;20587;-84
2022/06/12 12:52:23;;;;;;;4.70;3.53;;;;;;;;;;5084194;28;20035;-85
2022/06/12 12:54:52;;;;;;;4.70;2.90;;;;;;;;;;5032909;28;20049;-86
2022/06/12 12:57:20;;;;;;;4.82;3.05;;;;;;;;;;5037510;28;20068;-86
2022/06/12 12:59:48;;;;;;;4.35;3.30;;;;;;;;;;5041166;28;20037;-85
2022/06/12 13:02:29;;;;;;;4.43;2.90;;;;;;;;;;5005509;28;20565;-86
2022/06/12 13:04:57;;;;;;;4.82;3.00;;;;;;;;;;5016191;28;20485;-85
2022/06/12 13:07:39;;;;;;;4.85;2.92;;;;;;;;;;5029465;28;20068;-84
2022/06/12 13:10:24;;;;;;;4.80;3.07;;;;;;;;;;5036389;28;20101;-85
2022/06/12 13:12:53;;;;;;;4.55;2.97;;;;;;;;;;5036758;28;20049;-85
2022/06/12 13:15:31;;;;;;;4.60;3.10;;;;;;;;;;5044919;28;20036;-85
2022/06/12 13:18:12;;;;;;;4.53;3.05;;;;;;;;;;5032086;28;20041;-86
2022/06/12 13:20:48;;;;;;;5.53;3.20;;;;;;;;;;5034340;28;20116;-86
2022/06/12 13:23:31;;;;;;;5.05;3.40;;;;;;;;;;5015084;28;20432;-85
2022/06/12 13:26:00;;;;;;;4.88;3.10;;;;;;;;;;5014174;28;20064;-86
2022/06/12 13:28:32;;;;;;;6.25;3.40;;;;;;;;;;5021557;28;20041;-86
2022/06/12 13:30:59;;;;;;;5.35;3.13;;;;;;;;;;5047348;28;20040;-85
2022/06/12 13:33:27;;;;;;;5.45;3.20;;;;;;;;;;5075976;28;20024;-86
2022/06/12 13:35:58;;;;;;;4.70;3.47;;;;;;;;;;5070677;28;20610;-85
2022/06/12 13:38:26;;;;;;;5.28;3.22;;;;;;;;;;5073537;28;20016;-85
2022/06/12 13:41:06;;;;;;;5.18;3.67;;;;;;;;;;5066631;28;20412;-84
2022/06/12 13:43:35;;;;;;;6.93;3.33;;;;;;;;;;5078700;28;20058;-85
2022/06/12 13:46:20;;;;;;;5.00;3.10;;;;;;;;;;5079564;28;20112;-86
2022/06/12 13:48:46;;;;;;;5.50;3.35;;;;;;;;;;5079948;28;20442;-85
2022/06/12 13:51:30;;;;;;;5.28;3.50;;;;;;;;;;5087253;28;20024;-85
2022/06/12 13:54:19;;;;;;;5.18;3.60;;;;;;;;;;5074001;28;20029;-85
2022/06/12 13:56:50;;;;;;;5.18;3.40;;;;;;;;;;5066139;28;20032;-85
2022/06/12 13:59:22;;;;;;;5.20;4.10;;;;;;;;;;5082524;28;20028;-85
2022/06/12 14:01:49;;;;;;;5.97;3.67;;;;;;;;;;5076980;28;20500;-87
2022/06/12 14:04:25;;;;;;;4.43;3.53;;;;;;;;;;5079624;28;20403;-86
2022/06/12 14:06:52;;;;;;;4.90;3.80;;;;;;;;;;5075278;28;20054;-85
2022/06/12 14:09:21;;;;;;;5.70;3.20;;;;;;;;;;5075394;28;20067;-86
2022/06/12 14:11:47;;;;;;;6.35;3.70;;;;;;;;;;5070798;28;20032;-85
2022/06/12 14:14:32;;;;;;;4.65;3.47;;;;;;;;;;5061464;28;20036;-85
2022/06/12 14:16:59;;;;;;;4.53;3.45;;;;;;;;;;5068388;28;20028;-86
2022/06/12 14:19:33;;;;;;;4.88;3.60;;;;;;;;;;5078291;28;20356;-86
2022/06/12 14:22:10;;;;;;;5.22;3.75;;;;;;;;;;5071837;28;20053;-85
2022/06/12 14:24:36;;;;;;;5.50;3.97;;;;;;;;;;5072760;28;20028;-84
2022/06/12 14:27:03;;;;;;;5.15;4.03;;;;;;;;;;5075031;28;20443;-84
2022/06/12 14:29:37;;;;;;;4.88;3.90;;;;;;;;;;5088686;28;20028;-86
2022/06/12 14:32:18;;;;;;;5.93;3.92;;;;;;;;;;5077872;28;20024;-85
2022/06/12 14:34:46;;;;;;;4.90;3.72;;;;;;;;;;5076108;28;20034;-86
2022/06/12 14:37:25;;;;;;;5.28;3.83;;;;;;;;;;5071352;28;20598;-86
2022/06/12 14:39:51;;;;;;;5.72;3.72;;;;;;;;;;5063020;28;20033;-85
2022/06/12 14:42:18;;;;;;;5.70;4.25;;;;;;;;;;5076279;28;20024;-85
2022/06/12 14:44:44;;;;;;;6.22;4.78;;;;;;;;;;5062969;28;20071;-85
2022/06/12 14:47:20;;;;;;;7.38;5.45;;;;;;;;;;5059184;28;20033;-85
2022/06/12 14:49:47;;;;;;;7.47;6.05;;;;;;;;;;5065255;28;20056;-85
2022/06/12 14:52:13;;;;;;;4.93;3.70;;;;;;;;;;5074152;28;20415;-86
2022/06/12 14:54:39;;;;;;;5.00;3.72;;;;;;;;;;5083180;28;20099;-85
2022/06/12 14:57:06;;;;;;;5.25;4.20;;;;;;;;;;5067304;28;20060;-85
2022/06/12 14:59:32;;;;;;;6.75;4.47;;;;;;;;;;5069764;28;20020;-85
2022/06/12 15:01:59;;;;;;;5.60;4.50;;;;;;;;;;5075530;28;20021;-86
2022/06/12 15:04:26;;;;;;;5.90;3.60;;;;;;;;;;5076310;28;20062;-85
2022/06/12 15:06:52;;;;;;;5.32;3.88;;;;;;;;;;5055911;28;20024;-85
2022/06/12 15:09:18;;;;;;;5.22;4.15;;;;;;;;;;5059472;28;20077;-86
2022/06/12 15:11:45;;;;;;;5.35;3.97;;;;;;;;;;5071071;28;20033;-85
2022/06/12 15:14:14;;;;;;;4.70;3.90;;;;;;;;;;5073253;28;20036;-85
2022/06/12 15:16:40;;;;;;;7.57;3.90;;;;;;;;;;5080605;28;20054;-85
2022/06/12 15:19:06;;;;;;;5.65;3.90;;;;;;;;;;5080970;28;20075;-85
2022/06/12 15:21:37;;;;;;;5.82;3.88;;;;;;;;;;5075180;28;20017;-85